Time;durP1;ratioP1;P1;durP2;ratioP2;P2;SDS_P1;SDS_P2;PMS_P1;PMS_P2;Temp;Humidity;BMP_temperature;BMP_pressure;BME280_temperature;BME280_humidity;BME280_pressure;Samples;Min_cycle;Max_cycle;Signal;HPM_P1;HPM_P2
2022/01/23 00:01:47;;;;;;;39.60;11.10;;;;;;;-6.64;91.18;100565.15;103543;1300;24327;-25
2022/01/23 00:04:13;;;;;;;117.00;21.90;;;;;;;-6.60;91.22;100567.43;103491;1300;24301;-25
2022/01/23 00:06:39;;;;;;;41.50;8.90;;;;;;;-6.58;91.04;100563.70;103478;1300;22760;-26
2022/01/23 00:09:05;;;;;;;50.70;17.10;;;;;;;-6.59;91.30;100561.33;103477;1302;24329;-26
2022/01/23 00:11:32;;;;;;;46.90;12.60;;;;;;;-6.60;91.78;100563.27;103532;1300;24346;-26
2022/01/23 00:18:53;;;;;;;9.40;5.30;;;;;;;-6.38;91.35;100553.00;103674;1300;22564;-26
2022/01/23 00:21:19;;;;;;;16.20;5.60;;;;;;;-6.26;91.02;100549.90;103522;1300;24612;-29
2022/01/23 00:31:08;;;;;;;29.50;9.60;;;;;;;-6.27;92.37;100559.69;103489;1302;22696;-29
2022/01/23 00:33:34;;;;;;;51.90;12.60;;;;;;;-6.12;92.14;100562.40;103559;1300;24304;-29
2022/01/23 00:36:00;;;;;;;21.20;8.20;;;;;;;-6.10;91.94;100551.02;103540;1300;22772;-28
2022/01/23 00:38:26;;;;;;;24.90;8.90;;;;;;;-5.87;91.50;100550.54;103548;1300;24215;-25
2022/01/23 00:40:52;;;;;;;36.50;7.90;;;;;;;-5.84;90.62;100548.48;103570;1302;24603;-25
2022/01/23 00:43:27;;;;;;;26.70;11.80;;;;;;;-5.96;91.20;100554.92;103512;1300;24224;-24
2022/01/23 00:46:08;;;;;;;66.80;14.10;;;;;;;-5.99;90.99;100554.02;103622;1300;24270;-25
2022/01/23 00:48:37;;;;;;;21.40;8.10;;;;;;;-6.05;91.32;100556.17;103496;1302;22630;-30
2022/01/23 00:51:03;;;;;;;44.50;12.50;;;;;;;-6.01;91.36;100557.24;103592;1300;24410;-28
2022/01/23 00:53:29;;;;;;;42.30;11.60;;;;;;;-6.08;91.81;100558.21;103487;1300;22854;-28
2022/01/23 00:55:55;;;;;;;7.00;3.10;;;;;;;-6.06;91.86;100556.73;103552;1300;24195;-28
2022/01/23 00:58:21;;;;;;;16.70;9.00;;;;;;;-6.00;91.27;100563.11;103572;1300;24221;-27
2022/01/23 01:00:47;;;;;;;14.40;5.30;;;;;;;-5.92;91.06;100559.46;103540;1300;24200;-26
2022/01/23 01:03:13;;;;;;;68.60;15.20;;;;;;;-5.97;91.43;100561.96;103598;1301;24239;-25
2022/01/23 01:05:38;;;;;;;17.80;5.30;;;;;;;-6.02;91.46;100562.66;103505;1300;22560;-26
2022/01/23 01:08:05;;;;;;;16.00;8.10;;;;;;;-5.98;91.34;100567.41;103507;1301;24425;-29
2022/01/23 01:10:38;;;;;;;11.40;5.40;;;;;;;-5.80;90.77;100567.33;103497;1302;22819;-26
2022/01/23 01:13:05;;;;;;;18.50;6.20;;;;;;;-5.75;90.01;100565.71;103500;1300;22695;-25
2022/01/23 01:35:28;;;;;;;13.10;5.50;;;;;;;-5.77;90.56;100551.52;103583;1300;24296;-25
2022/01/23 01:37:54;;;;;;;11.70;7.40;;;;;;;-5.76;90.58;100547.42;103544;1301;24166;-28
2022/01/23 01:40:22;;;;;;;12.40;7.00;;;;;;;-5.69;90.68;100551.52;103547;1302;24231;-25
2022/01/23 01:42:48;;;;;;;20.30;5.80;;;;;;;-5.73;90.99;100552.71;103563;1300;24371;-28
2022/01/23 01:45:14;;;;;;;12.20;5.90;;;;;;;-5.67;90.93;100555.74;103439;1300;24211;-25
2022/01/23 01:47:46;;;;;;;33.00;10.50;;;;;;;-5.60;90.93;100557.05;103560;1300;24218;-27
2022/01/23 01:50:12;;;;;;;21.90;6.70;;;;;;;-5.85;92.00;100554.99;103543;1300;23048;-29
2022/01/23 01:52:38;;;;;;;23.90;7.60;;;;;;;-5.73;92.97;100555.86;103553;1300;22838;-28
2022/01/23 01:55:07;;;;;;;14.40;6.20;;;;;;;-5.65;93.22;100556.73;103583;1300;24231;-29
2022/01/23 01:57:39;;;;;;;11.50;4.90;;;;;;;-5.45;92.68;100563.03;103559;1302;22892;-25
2022/01/23 02:10:05;;;;;;;25.50;10.70;;;;;;;-5.15;91.18;100546.18;103583;1300;22617;-27
2022/01/23 02:23:01;;;;;;;23.00;6.00;;;;;;;-5.09;90.27;100545.93;103673;1300;24190;-29
2022/01/23 02:50:32;;;;;;;12.30;6.40;;;;;;;-5.09;90.13;100545.58;103537;1300;22720;-25
2022/01/23 02:50:46;;;;;;;32.30;11.60;;;;;;;-5.16;93.29;100584.96;103531;1300;24173;-26
2022/01/23 02:53:32;;;;;;;30.20;11.20;;;;;;;-5.13;93.59;100584.66;103590;1300;24402;-26
2022/01/23 02:55:59;;;;;;;29.70;10.50;;;;;;;-4.95;93.29;100580.58;103628;1300;23019;-26
2022/01/23 02:58:32;;;;;;;21.80;7.10;;;;;;;-4.95;93.25;100580.74;103543;1300;24214;-29
2022/01/23 03:01:18;;;;;;;26.10;11.20;;;;;;;-4.85;93.27;100574.02;103567;1300;24506;-26
2022/01/23 03:03:47;;;;;;;14.40;7.20;;;;;;;-4.86;92.11;100575.44;103526;1302;24200;-29
2022/01/23 03:06:35;;;;;;;21.80;7.10;;;;;;;-4.91;91.22;100571.67;103530;1300;24253;-29
2022/01/23 03:14:12;;;;;;;6.90;3.10;;;;;;;-5.22;91.50;100588.56;103522;1300;22755;-26
2022/01/23 03:26:54;;;;;;;6.50;4.20;;;;;;;-5.19;92.16;100584.77;103641;1300;24338;-29
2022/01/23 03:29:23;;;;;;;13.10;7.20;;;;;;;-5.10;92.46;100586.15;103577;1300;24179;-29
2022/01/23 03:34:26;;;;;;;13.10;5.30;;;;;;;-5.15;93.86;100573.94;103491;1300;24342;-29
2022/01/23 03:36:52;;;;;;;23.60;7.80;;;;;;;-4.95;92.67;100573.59;103540;1300;24299;-30
2022/01/23 03:39:18;;;;;;;10.20;5.40;;;;;;;-5.04;92.62;100578.34;103499;1303;24219;-27
2022/01/23 03:41:44;;;;;;;39.50;8.60;;;;;;;-5.02;93.01;100581.56;103538;1300;24195;-30
2022/01/23 03:44:11;;;;;;;16.00;4.40;;;;;;;-4.92;92.87;100579.38;103529;1300;24271;-25
2022/01/23 03:51:36;;;;;;;34.30;10.10;;;;;;;-4.84;93.03;100592.99;103533;1300;24379;-25
2022/01/23 03:54:02;;;;;;;16.40;7.50;;;;;;;-4.69;92.58;100600.00;103519;1300;24277;-28
2022/01/23 03:56:30;;;;;;;19.00;6.90;;;;;;;-4.72;92.79;100595.77;103595;1300;24362;-30
2022/01/23 03:58:57;;;;;;;19.40;6.60;;;;;;;-4.76;93.07;100599.64;103571;1300;22757;-29
2022/01/23 04:01:24;;;;;;;30.60;11.50;;;;;;;-4.70;93.43;100598.80;103607;1300;24230;-28
2022/01/23 04:03:52;;;;;;;40.80;5.30;;;;;;;-4.70;92.54;100603.35;103643;1300;24382;-30
2022/01/23 04:06:17;;;;;;;25.60;8.40;;;;;;;-4.78;93.36;100606.52;103589;1300;24197;-26
2022/01/23 04:08:44;;;;;;;38.70;13.00;;;;;;;-4.70;93.26;100613.14;103581;1300;24755;-25
2022/01/23 04:11:10;;;;;;;22.30;11.20;;;;;;;-4.72;93.15;100616.58;103024;1301;732173;-26
2022/01/23 04:13:45;;;;;;;12.50;6.30;;;;;;;-4.58;93.37;100615.58;103554;1300;24199;-29
2022/01/23 04:33:55;;;;;;;50.90;9.20;;;;;;;-4.24;91.93;100612.42;103585;1301;23138;-29
2022/01/23 04:46:58;;;;;;;33.90;13.00;;;;;;;-4.49;92.11;100630.38;103575;1300;24350;-30
2022/01/23 04:59:33;;;;;;;34.00;10.40;;;;;;;-4.39;92.54;100628.33;103494;1302;24463;-29
2022/01/23 05:04:19;;;;;;;17.70;7.00;;;;;;;-3.95;90.02;100613.98;103588;1302;22525;-29
2022/01/23 05:06:49;;;;;;;18.00;8.10;;;;;;;-3.95;89.95;100614.67;103567;1302;24190;-26
2022/01/23 05:09:15;;;;;;;28.30;9.50;;;;;;;-4.19;90.96;100621.09;103488;1302;24214;-29
2022/01/23 05:11:49;;;;;;;35.90;13.40;;;;;;;-4.26;91.71;100622.64;103508;1300;22750;-30
2022/01/23 05:14:17;;;;;;;19.20;7.80;;;;;;;-4.11;91.37;100621.05;103544;1301;24180;-29
2022/01/23 05:16:43;;;;;;;29.90;9.10;;;;;;;-4.21;91.76;100623.10;103590;1300;25396;-25
2022/01/23 05:19:09;;;;;;;34.00;7.20;;;;;;;-4.23;92.44;100627.39;103508;1302;22576;-27
2022/01/23 05:24:05;;;;;;;22.30;7.60;;;;;;;-4.04;91.77;100623.55;103489;1300;22626;-25
2022/01/23 05:26:34;;;;;;;21.90;9.20;;;;;;;-3.87;90.52;100617.64;103593;1300;24200;-28
2022/01/23 05:29:00;;;;;;;16.00;8.90;;;;;;;-3.91;90.30;100610.29;103559;1300;24191;-26
2022/01/23 05:31:25;;;;;;;22.10;7.20;;;;;;;-4.07;90.90;100606.51;103654;1301;24326;-31
2022/01/23 05:33:51;;;;;;;8.60;4.20;;;;;;;-4.09;91.49;100610.65;103576;1300;24372;-28
2022/01/23 05:36:17;;;;;;;20.20;7.70;;;;;;;-4.10;92.13;100609.13;103528;1301;24193;-29
2022/01/23 05:38:43;;;;;;;10.70;7.10;;;;;;;-4.12;92.52;100608.73;103494;1300;24323;-29
2022/01/23 05:41:08;;;;;;;25.80;10.70;;;;;;;-3.98;91.94;100610.29;103497;1302;24242;-29
2022/01/23 05:43:34;;;;;;;18.40;6.80;;;;;;;-4.13;92.51;100612.77;103555;1302;24414;-26
2022/01/23 05:46:00;;;;;;;33.00;11.60;;;;;;;-3.94;92.08;100620.58;103477;1301;24262;-25
2022/01/23 05:48:26;;;;;;;8.90;3.50;;;;;;;-3.78;91.29;100629.64;103514;1302;24408;-29
2022/01/23 05:50:51;;;;;;;18.70;8.90;;;;;;;-3.94;91.60;100637.07;103574;1302;24440;-29
2022/01/23 05:53:17;;;;;;;12.10;7.30;;;;;;;-3.89;92.12;100639.05;103479;1300;22647;-26
2022/01/23 05:55:43;;;;;;;15.50;7.70;;;;;;;-3.86;91.72;100641.91;103523;1300;24365;-29
2022/01/23 05:58:08;;;;;;;14.80;7.40;;;;;;;-3.86;91.90;100648.04;103509;1302;22506;-26
2022/01/23 06:00:34;;;;;;;7.30;4.40;;;;;;;-3.86;92.10;100648.23;103569;1300;24383;-29
2022/01/23 06:03:00;;;;;;;11.50;7.00;;;;;;;-3.74;91.62;100650.95;103579;1300;24216;-29
2022/01/23 06:05:25;;;;;;;20.50;9.20;;;;;;;-3.78;91.88;100653.92;103530;1302;24242;-29
2022/01/23 06:07:51;;;;;;;16.30;7.30;;;;;;;-3.55;91.27;100648.77;103526;1300;24465;-26
2022/01/23 06:10:23;;;;;;;8.70;5.80;;;;;;;-3.78;91.73;100653.05;103496;1301;24388;-29
2022/01/23 06:12:49;;;;;;;19.80;9.10;;;;;;;-3.78;92.42;100656.20;103483;1300;24331;-26
2022/01/23 06:15:15;;;;;;;13.60;6.60;;;;;;;-3.63;91.78;100652.85;103534;1300;24213;-26
2022/01/23 06:17:42;;;;;;;9.50;3.20;;;;;;;-3.69;91.79;100656.81;103513;1300;24355;-25
2022/01/23 06:20:10;;;;;;;19.10;9.50;;;;;;;-3.56;91.78;100655.15;103583;1300;22839;-28
2022/01/23 06:22:36;;;;;;;16.00;6.70;;;;;;;-3.63;91.96;100657.61;103562;1300;25121;-29
2022/01/23 06:25:04;;;;;;;38.80;11.40;;;;;;;-3.60;91.93;100657.95;103550;1300;24209;-27
2022/01/23 06:27:30;;;;;;;17.30;6.90;;;;;;;-3.71;92.45;100661.67;103690;1299;24235;-26
2022/01/23 06:29:56;;;;;;;14.10;7.20;;;;;;;-3.78;93.29;100662.50;103566;1300;24406;-29
2022/01/23 06:32:22;;;;;;;17.60;7.00;;;;;;;-3.61;92.99;100665.73;103593;1300;24252;-28
2022/01/23 06:34:47;;;;;;;12.00;7.80;;;;;;;-3.52;92.41;100665.61;103550;1300;22839;-31
2022/01/23 06:37:13;;;;;;;33.90;10.30;;;;;;;-3.47;92.43;100668.02;103614;1300;24167;-26
2022/01/23 06:39:39;;;;;;;24.20;7.10;;;;;;;-3.51;92.18;100670.66;103572;1300;24181;-27
2022/01/23 06:42:05;;;;;;;17.90;6.30;;;;;;;-3.55;92.51;100683.11;103543;1300;24319;-28
2022/01/23 06:44:31;;;;;;;25.70;8.10;;;;;;;-3.66;93.12;100685.39;103510;1302;24213;-25
2022/01/23 06:46:57;;;;;;;18.00;8.00;;;;;;;-3.70;93.66;100689.78;103629;1300;24232;-29
2022/01/23 06:49:23;;;;;;;19.10;7.00;;;;;;;-3.70;94.18;100693.48;103611;1300;24304;-25
2022/01/23 06:51:49;;;;;;;20.00;7.30;;;;;;;-3.68;94.08;100695.11;103655;1299;24268;-29
2022/01/23 06:54:15;;;;;;;17.10;7.00;;;;;;;-3.75;94.46;100701.39;103547;1300;24354;-26
2022/01/23 06:56:41;;;;;;;28.60;11.50;;;;;;;-3.55;94.70;100701.63;103604;1300;24236;-26
2022/01/23 06:59:07;;;;;;;19.10;6.30;;;;;;;-3.54;94.57;100704.60;103491;1300;24328;-29
2022/01/23 07:01:32;;;;;;;27.80;10.90;;;;;;;-3.39;94.18;100710.14;103552;1300;24172;-28
2022/01/23 07:03:58;;;;;;;27.60;9.00;;;;;;;-3.26;93.13;100707.23;103605;1300;24292;-28
2022/01/23 07:06:24;;;;;;;24.40;11.90;;;;;;;-3.17;91.94;100708.90;103569;1300;24201;-28
2022/01/23 07:08:50;;;;;;;14.00;8.30;;;;;;;-3.01;90.96;100708.62;103656;1300;24207;-31
2022/01/23 07:11:15;;;;;;;18.50;11.00;;;;;;;-3.24;91.22;100707.14;103586;1300;24303;-28
2022/01/23 07:13:41;;;;;;;41.90;13.10;;;;;;;-3.20;91.20;100705.17;103635;1300;24186;-25
2022/01/23 07:16:07;;;;;;;6.60;3.60;;;;;;;-3.23;91.34;100705.65;103677;1300;24415;-25
2022/01/23 07:18:33;;;;;;;12.00;5.70;;;;;;;-3.26;91.35;100705.11;103643;1300;24307;-29
2022/01/23 07:20:59;;;;;;;13.60;8.50;;;;;;;-3.31;91.99;100713.11;103476;1301;24231;-26
2022/01/23 07:23:24;;;;;;;21.50;6.10;;;;;;;-3.23;91.80;100710.40;103567;1300;22625;-29
2022/01/23 07:25:50;;;;;;;25.60;9.80;;;;;;;-3.13;91.80;100712.70;103571;1301;24186;-29
2022/01/23 07:28:19;;;;;;;55.80;14.50;;;;;;;-3.21;91.99;100717.52;103549;1302;24257;-25
2022/01/23 07:30:51;;;;;;;35.20;12.70;;;;;;;-3.28;92.86;100715.73;103669;1301;24318;-29
2022/01/23 07:33:17;;;;;;;23.10;8.90;;;;;;;-3.01;92.35;100712.98;103518;1300;24175;-30
2022/01/23 07:35:43;;;;;;;16.10;7.00;;;;;;;-2.97;91.71;100714.69;103531;1300;24346;-31
2022/01/23 07:38:10;;;;;;;63.80;21.10;;;;;;;-3.11;92.07;100714.70;103486;1302;24477;-26
2022/01/23 07:40:36;;;;;;;31.60;10.90;;;;;;;-3.20;93.48;100722.17;103490;1302;24188;-26
2022/01/23 07:43:02;;;;;;;83.10;21.00;;;;;;;-3.09;93.48;100728.97;103534;1300;24222;-26
2022/01/23 07:45:28;;;;;;;142.00;35.90;;;;;;;-2.92;93.14;100730.23;103465;1300;24314;-25
2022/01/23 07:47:54;;;;;;;110.50;28.60;;;;;;;-3.01;92.81;100734.73;103560;1301;24225;-29
2022/01/23 07:50:19;;;;;;;104.10;25.10;;;;;;;-3.01;93.12;100740.81;103518;1300;24220;-26
2022/01/23 07:52:45;;;;;;;56.20;13.70;;;;;;;-2.96;93.35;100751.79;103469;1302;22606;-29
2022/01/23 07:55:13;;;;;;;28.30;11.10;;;;;;;-2.89;93.32;100760.57;103487;1300;24280;-26
2022/01/23 07:57:39;;;;;;;30.00;11.00;;;;;;;-2.86;93.22;100763.05;103519;1302;24318;-26
2022/01/23 08:00:07;;;;;;;34.60;10.50;;;;;;;-2.84;93.27;100762.76;103526;1302;24189;-28
2022/01/23 08:02:32;;;;;;;22.80;8.50;;;;;;;-2.76;92.97;100769.89;103586;1300;24398;-29
2022/01/23 08:04:59;;;;;;;22.90;10.40;;;;;;;-2.74;92.90;100776.84;103636;1300;24368;-25
2022/01/23 08:09:56;;;;;;;21.30;7.80;;;;;;;-2.72;92.81;100780.19;103550;1302;24358;-30
2022/01/23 08:12:23;;;;;;;12.90;6.20;;;;;;;-2.62;92.37;100777.59;103567;1300;24254;-28
2022/01/23 08:14:49;;;;;;;40.30;14.50;;;;;;;-2.50;91.71;100783.27;103568;1300;24264;-27
2022/01/23 08:17:15;;;;;;;28.90;10.10;;;;;;;-2.54;91.89;100785.95;103571;1300;24389;-27
2022/01/23 08:19:40;;;;;;;38.40;13.50;;;;;;;-2.51;91.72;100787.91;103528;1300;24165;-27
2022/01/23 08:22:06;;;;;;;18.30;7.90;;;;;;;-2.40;91.86;100788.37;103637;1302;24335;-27
2022/01/23 08:24:32;;;;;;;157.60;42.70;;;;;;;-2.36;90.84;100790.48;103562;1302;24185;-30
2022/01/23 08:26:58;;;;;;;41.20;13.90;;;;;;;-2.40;91.45;100791.17;103481;1300;24325;-25
2022/01/23 08:29:23;;;;;;;67.80;22.10;;;;;;;-2.27;90.92;100790.69;103621;1300;24198;-31
2022/01/23 08:31:49;;;;;;;47.20;16.90;;;;;;;-2.32;90.71;100788.83;103592;1300;24311;-31
2022/01/23 08:34:15;;;;;;;70.20;24.10;;;;;;;-2.23;90.57;100799.29;103455;1300;24175;-27
2022/01/23 08:36:40;;;;;;;44.70;14.10;;;;;;;-2.14;90.52;100802.96;103534;1300;24296;-30
2022/01/23 08:39:06;;;;;;;59.90;21.10;;;;;;;-2.24;90.12;100808.05;103582;1300;24390;-27
2022/01/23 08:44:02;;;;;;;28.40;11.40;;;;;;;-2.11;90.87;100818.10;103603;1300;25358;-29
2022/01/23 08:46:27;;;;;;;24.00;11.90;;;;;;;-1.98;90.36;100823.89;103545;1297;24332;-26
2022/01/23 08:48:53;;;;;;;39.60;14.30;;;;;;;-1.93;90.54;100824.52;103508;1300;24287;-30
2022/01/23 08:51:19;;;;;;;32.90;14.40;;;;;;;-1.93;90.59;100828.20;103590;1302;24275;-26
2022/01/23 08:53:44;;;;;;;75.70;22.60;;;;;;;-1.81;89.73;100825.79;103440;1300;22526;-30
2022/01/23 08:56:10;;;;;;;76.10;20.90;;;;;;;-1.91;89.75;100831.11;103562;1303;24174;-26
2022/01/23 08:58:36;;;;;;;92.40;23.20;;;;;;;-1.86;90.20;100841.90;103561;1300;24332;-26
2022/01/23 09:01:02;;;;;;;29.60;11.00;;;;;;;-1.63;90.13;100841.70;103540;1300;24304;-26
2022/01/23 09:03:27;;;;;;;69.20;20.30;;;;;;;-1.51;88.68;100833.84;103525;1302;24307;-25
2022/01/23 09:05:54;;;;;;;65.90;18.80;;;;;;;-1.61;89.21;100830.34;103577;1300;24341;-29
2022/01/23 09:08:21;;;;;;;57.00;19.60;;;;;;;-1.74;88.72;100832.80;103552;1301;24351;-29
2022/01/23 09:13:31;;;;;;;113.20;26.10;;;;;;;-1.35;87.58;100832.97;103525;1301;22499;-29
2022/01/23 09:15:57;;;;;;;111.10;23.10;;;;;;;-1.48;88.05;100832.79;103534;1300;24349;-26
2022/01/23 09:18:23;;;;;;;82.90;20.80;;;;;;;-1.50;88.28;100835.52;103543;1300;24462;-28
2022/01/23 09:20:49;;;;;;;173.60;30.60;;;;;;;-1.37;87.71;100834.96;103628;1300;24248;-26
2022/01/23 09:23:14;;;;;;;183.60;38.00;;;;;;;-1.41;87.34;100837.32;103516;1301;24198;-31
2022/01/23 09:25:40;;;;;;;49.00;13.70;;;;;;;-1.61;87.43;100841.92;103504;1301;24201;-29
2022/01/23 09:28:07;;;;;;;87.40;22.10;;;;;;;-1.40;87.50;100843.23;103532;1302;25349;-30
2022/01/23 09:30:36;;;;;;;31.50;11.40;;;;;;;-1.31;86.77;100845.02;103488;1302;24223;-31
2022/01/23 09:33:02;;;;;;;120.40;27.60;;;;;;;-1.45;87.17;100855.11;103533;1302;24217;-29
2022/01/23 09:35:28;;;;;;;79.90;20.50;;;;;;;-1.32;86.46;100855.09;103566;1300;24163;-25
2022/01/23 09:37:54;;;;;;;99.10;27.30;;;;;;;-1.40;87.15;100864.88;103552;1300;24265;-27
2022/01/23 09:40:20;;;;;;;111.40;29.80;;;;;;;-1.27;86.78;100858.48;103520;1302;26308;-27
2022/01/23 09:42:50;;;;;;;28.30;10.60;;;;;;;-1.39;86.52;100854.92;103491;1300;22512;-26
2022/01/23 09:45:17;;;;;;;32.30;10.60;;;;;;;-1.32;85.90;100850.20;103496;1301;24331;-31
2022/01/23 09:47:43;;;;;;;29.10;12.00;;;;;;;-1.47;86.78;100851.71;103561;1302;22622;-26
2022/01/23 09:50:11;;;;;;;22.40;7.30;;;;;;;-1.32;86.25;100854.95;103558;1300;24378;-25
2022/01/23 09:52:37;;;;;;;46.60;16.60;;;;;;;-1.47;86.75;100859.44;103525;1302;24439;-28
2022/01/23 09:57:35;;;;;;;46.50;18.80;;;;;;;-1.35;86.80;100846.27;103617;1300;24331;-27
2022/01/23 10:00:02;;;;;;;41.70;16.90;;;;;;;-1.54;87.43;100853.48;103498;1302;24454;-28
2022/01/23 10:02:28;;;;;;;33.80;14.30;;;;;;;-1.51;88.16;100849.78;103643;1300;24319;-28
2022/01/23 10:04:54;;;;;;;43.90;15.80;;;;;;;-1.37;88.36;100848.52;103501;1302;24225;-26
2022/01/23 10:07:21;;;;;;;39.70;14.20;;;;;;;-1.27;87.74;100850.98;103524;1302;24279;-29
2022/01/23 10:09:53;;;;;;;37.30;13.60;;;;;;;-1.26;88.33;100853.19;103486;1302;24381;-28
2022/01/23 10:12:20;;;;;;;29.50;10.70;;;;;;;-1.14;88.19;100849.72;103550;1300;26145;-26
2022/01/23 10:14:46;;;;;;;22.30;8.70;;;;;;;-1.10;88.10;100851.39;103586;1300;24233;-29
2022/01/23 10:17:12;;;;;;;27.00;12.00;;;;;;;-0.95;88.03;100854.04;103503;1302;22875;-28
2022/01/23 10:19:38;;;;;;;17.40;8.40;;;;;;;-0.85;87.21;100850.84;103537;1300;24260;-28
2022/01/23 10:22:05;;;;;;;34.60;14.50;;;;;;;-0.82;86.91;100857.21;103518;1300;24221;-30
2022/01/23 10:24:31;;;;;;;23.40;11.10;;;;;;;-0.60;85.69;100855.38;103608;1299;24286;-26
2022/01/23 10:26:59;;;;;;;43.20;18.50;;;;;;;-0.72;85.33;100855.41;103570;1301;22855;-29
2022/01/23 10:29:29;;;;;;;49.70;13.10;;;;;;;-0.71;85.15;100856.38;103502;1302;24200;-30
2022/01/23 10:32:02;;;;;;;82.70;20.80;;;;;;;-0.71;84.64;100858.83;103413;1302;23832;-29
2022/01/23 10:34:47;;;;;;;101.60;26.60;;;;;;;-0.65;84.61;100851.65;103524;1302;25358;-25
2022/01/23 10:37:24;;;;;;;105.70;22.80;;;;;;;-0.89;85.61;100860.06;103534;1300;24444;-26
2022/01/23 10:39:50;;;;;;;119.20;25.50;;;;;;;-0.79;85.47;100862.83;103542;1302;24291;-25
2022/01/23 10:42:35;;;;;;;61.80;14.70;;;;;;;-0.78;85.99;100859.59;103532;1300;24302;-27
2022/01/23 10:47:44;;;;;;;90.20;19.90;;;;;;;-0.54;83.99;100850.64;103512;1300;24219;-26
2022/01/23 10:50:10;;;;;;;82.10;20.40;;;;;;;-0.45;83.35;100843.80;103528;1300;24316;-30
2022/01/23 10:52:38;;;;;;;87.30;22.10;;;;;;;-0.68;84.28;100838.81;103602;1302;24325;-30
2022/01/23 10:55:07;;;;;;;66.40;18.90;;;;;;;-0.51;84.21;100840.64;103625;1300;24251;-29
2022/01/23 10:57:36;;;;;;;57.10;18.00;;;;;;;-0.59;84.68;100837.58;103528;1300;24443;-30
2022/01/23 11:00:05;;;;;;;65.90;18.80;;;;;;;-0.46;84.83;100837.36;103688;1300;22518;-26
2022/01/23 11:02:31;;;;;;;51.20;16.10;;;;;;;-0.40;84.63;100838.20;103477;1300;22566;-30
2022/01/23 11:05:01;;;;;;;70.00;18.20;;;;;;;-0.22;83.88;100837.14;103540;1300;22979;-26
2022/01/23 11:07:28;;;;;;;73.90;17.00;;;;;;;-0.17;83.64;100834.89;103564;1300;24276;-26
2022/01/23 11:09:56;;;;;;;76.60;22.00;;;;;;;-0.19;82.70;100835.70;103538;1300;24420;-30
2022/01/23 11:17:28;;;;;;;18.00;10.30;;;;;;;0.09;81.52;100843.69;103514;1300;24221;-25
2022/01/23 11:19:56;;;;;;;40.20;12.10;;;;;;;0.38;79.66;100839.82;103464;1300;24274;-31
2022/01/23 11:22:24;;;;;;;57.10;21.00;;;;;;;-0.02;81.14;100840.34;103628;1300;24351;-26
2022/01/23 11:24:50;;;;;;;38.70;15.00;;;;;;;-0.11;82.49;100838.97;103520;1300;24407;-25
2022/01/23 11:27:18;;;;;;;30.80;14.20;;;;;;;-0.04;82.23;100840.66;103504;1300;24404;-27
2022/01/23 11:29:51;;;;;;;35.80;11.60;;;;;;;0.24;81.81;100840.48;103586;1302;24341;-26
2022/01/23 11:32:17;;;;;;;43.60;16.00;;;;;;;0.09;81.44;100840.92;103573;1300;22510;-26
2022/01/23 11:34:43;;;;;;;24.00;12.20;;;;;;;0.31;81.14;100838.29;103497;1300;24219;-26
2022/01/23 11:37:08;;;;;;;52.50;18.40;;;;;;;0.41;79.71;100833.63;103550;1302;24293;-26
2022/01/23 11:39:40;;;;;;;149.40;43.00;;;;;;;0.24;81.35;100838.35;103535;1301;24145;-31
2022/01/23 11:54:41;;;;;;;69.40;23.40;;;;;;;0.80;79.37;100822.84;103558;1300;24310;-25
2022/01/23 11:57:13;;;;;;;60.80;14.90;;;;;;;0.83;78.56;100823.36;103574;1300;23834;-27
2022/01/23 11:59:40;;;;;;;40.00;15.10;;;;;;;0.70;79.33;100822.11;103580;1300;25056;-25
2022/01/23 12:02:11;;;;;;;60.50;18.80;;;;;;;0.97;78.17;100822.30;103491;1303;24197;-29
2022/01/23 12:04:38;;;;;;;34.70;13.90;;;;;;;0.93;77.59;100821.64;103782;1300;22797;-26
2022/01/23 12:07:03;;;;;;;16.70;10.20;;;;;;;0.74;78.57;100829.04;103601;1300;24214;-26
2022/01/23 12:09:30;;;;;;;42.00;7.80;;;;;;;0.89;78.05;100828.43;103124;1300;612551;-26
2022/01/23 12:12:02;;;;;;;31.30;11.70;;;;;;;0.81;78.51;100830.51;103517;1300;24208;-25
2022/01/23 12:17:01;;;;;;;28.50;12.10;;;;;;;0.77;79.29;100837.15;103622;1300;22599;-25
2022/01/23 12:19:28;;;;;;;25.10;10.70;;;;;;;0.73;79.43;100842.52;103563;1300;25373;-27
2022/01/23 12:21:55;;;;;;;38.00;12.80;;;;;;;0.86;79.53;100847.89;103497;1300;24174;-25
2022/01/23 12:24:23;;;;;;;37.00;12.20;;;;;;;0.87;79.32;100845.66;103565;1300;24248;-26
2022/01/23 12:26:49;;;;;;;22.70;9.70;;;;;;;1.02;79.52;100847.39;103605;1300;24304;-29
2022/01/23 12:29:18;;;;;;;23.10;8.30;;;;;;;0.96;78.46;100852.70;103616;1300;24228;-29
2022/01/23 12:31:44;;;;;;;29.50;9.90;;;;;;;0.85;78.98;100853.22;103649;1300;24289;-25
2022/01/23 12:34:11;;;;;;;17.50;7.90;;;;;;;1.00;79.30;100847.45;103502;1302;24498;-26
2022/01/23 12:36:38;;;;;;;29.10;10.80;;;;;;;0.97;79.18;100843.63;103488;1300;24128;-29
2022/01/23 12:39:07;;;;;;;34.90;11.40;;;;;;;0.91;78.30;100842.23;103505;1302;24209;-26
2022/01/23 12:41:37;;;;;;;23.50;9.10;;;;;;;0.77;78.58;100837.88;103517;1300;24342;-29
2022/01/23 12:44:05;;;;;;;26.90;12.60;;;;;;;0.76;79.33;100841.13;103746;1300;22607;-29
2022/01/23 12:46:33;;;;;;;20.90;11.50;;;;;;;0.72;79.63;100843.83;103575;1300;24424;-31
2022/01/23 12:49:16;;;;;;;30.70;11.30;;;;;;;0.81;81.57;100847.10;103577;1300;24223;-31
2022/01/23 12:51:42;;;;;;;26.40;11.10;;;;;;;0.91;80.17;100845.39;103571;1300;24330;-25
2022/01/23 12:54:13;;;;;;;25.40;11.40;;;;;;;0.89;79.23;100848.02;103529;1301;24307;-26
2022/01/23 12:56:43;;;;;;;35.80;11.00;;;;;;;0.89;79.42;100846.27;103599;1300;24312;-29
2022/01/23 12:59:11;;;;;;;25.00;10.80;;;;;;;0.92;79.03;100847.11;103526;1300;22600;-29
2022/01/23 13:01:39;;;;;;;29.50;12.50;;;;;;;0.87;79.36;100847.61;103697;1300;22614;-25
2022/01/23 13:04:06;;;;;;;27.10;10.80;;;;;;;0.68;79.53;100853.80;103671;1300;24203;-26
2022/01/23 13:06:33;;;;;;;27.70;11.10;;;;;;;0.48;80.03;100859.97;103956;1300;24151;-28
2022/01/23 13:09:05;;;;;;;30.80;10.60;;;;;;;0.48;80.53;100862.47;104072;1300;23992;-29
2022/01/23 13:14:00;;;;;;;21.30;8.10;;;;;;;0.56;79.30;100864.55;104222;1302;24460;-26
2022/01/23 13:29:52;;;;;;;26.50;11.70;;;;;;;0.95;78.70;100868.48;103666;1300;24324;-31
2022/01/23 13:31:44;;;;;;;27.10;11.20;;;;;;;0.68;79.31;100875.30;103670;1300;24310;-29
2022/01/23 13:34:17;;;;;;;28.70;11.60;;;;;;;0.72;78.68;100872.73;103719;1300;24221;-26
2022/01/23 13:36:50;;;;;;;15.50;7.80;;;;;;;0.83;79.46;100867.11;103738;1300;22533;-31
2022/01/23 13:39:22;;;;;;;20.50;7.70;;;;;;;0.79;78.94;100861.16;103680;1300;24268;-29
2022/01/23 13:41:54;;;;;;;14.60;7.40;;;;;;;0.80;78.88;100857.98;103668;1300;22701;-26
2022/01/23 14:04:17;;;;;;;14.30;7.50;;;;;;;0.76;78.55;100874.75;103577;1301;22873;-29
2022/01/23 14:06:43;;;;;;;19.10;7.80;;;;;;;0.75;78.97;100881.55;103554;1300;24177;-26
2022/01/23 14:09:10;;;;;;;14.00;7.20;;;;;;;0.76;79.90;100889.27;103491;1302;24196;-29
2022/01/23 14:11:36;;;;;;;16.60;6.60;;;;;;;0.76;79.74;100893.62;103506;1302;24261;-26
2022/01/23 14:14:09;;;;;;;13.80;6.30;;;;;;;0.69;78.55;100901.81;103514;1300;24292;-29
2022/01/23 14:16:35;;;;;;;16.40;7.10;;;;;;;0.64;79.55;100906.17;103462;1302;26189;-29
2022/01/23 14:19:08;;;;;;;22.80;6.90;;;;;;;0.53;79.53;100907.05;103482;1300;24496;-29
2022/01/23 14:21:39;;;;;;;18.90;6.20;;;;;;;0.50;80.13;100908.33;103707;1300;24240;-29
2022/01/23 14:24:05;;;;;;;13.00;6.80;;;;;;;0.39;79.44;100902.07;103575;1300;23899;-28
2022/01/23 14:26:31;;;;;;;18.60;7.50;;;;;;;0.34;79.49;100898.38;103531;1302;24237;-31
2022/01/23 14:28:57;;;;;;;28.10;9.20;;;;;;;0.39;80.78;100896.13;103550;1300;24351;-26
2022/01/23 14:31:25;;;;;;;98.30;25.40;;;;;;;0.24;80.55;100890.86;103446;1300;24223;-30
2022/01/23 14:33:56;;;;;;;100.70;21.80;;;;;;;0.05;79.91;100887.99;103653;1300;24291;-30
2022/01/23 14:36:24;;;;;;;78.00;20.80;;;;;;;-0.05;80.94;100889.46;103551;1300;24226;-30
2022/01/23 14:38:56;;;;;;;64.10;18.20;;;;;;;0.00;82.36;100887.05;103518;1300;24286;-27